Comodoro Rivadavia, Argentina
Current Conditions -  °F | °C
As of 12:00 AM on Friday 28 Nov 2014 (Local Time) from SAVC Reporting Station
Clear Clear  
Wind Chill: 64°   Ceiling: Unl
Heat Index: 64°   Visibility: 6mi
Dew Point: 34°   Wind: 23mph
Humidity: 32%   Direction: 290°WNW
Pressure: 29.68"   Gusts: NA
Location:  45.86°S, 67.49°W
Report Text: SAVC 280300Z 29020KT CAVOK 18/01 Q1005
Loading
Personal Weather Stations






























Interactive Weather Map New forecast layout! Learn more

10-Day Weather Forecast

Advertisements
Track Severe Weather on mobile